Time;durP1;ratioP1;P1;durP2;ratioP2;P2;SDS_P1;SDS_P2;PMS_P1;PMS_P2;Temp;Humidity;BMP_temperature;BMP_pressure;BME280_temperature;BME280_humidity;BME280_pressure;Samples;Min_cycle;Max_cycle;Signal;HPM_P1;HPM_P2
2021/08/01 00:00:40;;;;;;;17.50;7.07;;;;;;;14.85;100.00;101092.69;4980749;28;20049;-71
2021/08/01 00:03:08;;;;;;;19.85;7.88;;;;;;;14.85;100.00;101092.69;4981491;28;20074;-71
2021/08/01 00:05:36;;;;;;;17.20;7.22;;;;;;;14.84;100.00;101087.38;4982520;28;20068;-71
2021/08/01 00:08:04;;;;;;;21.73;6.63;;;;;;;14.77;100.00;101085.94;4977981;28;20452;-71
2021/08/01 00:10:32;;;;;;;14.88;6.03;;;;;;;14.73;100.00;101090.56;4981163;28;20062;-70
2021/08/01 00:13:01;;;;;;;15.23;6.13;;;;;;;14.71;100.00;101098.69;4979545;28;20386;-71
2021/08/01 00:15:29;;;;;;;14.32;6.55;;;;;;;14.68;100.00;101101.53;4983304;28;20183;-71
2021/08/01 00:17:58;;;;;;;18.25;6.22;;;;;;;14.68;100.00;101097.97;4980386;28;20047;-71
2021/08/01 00:20:26;;;;;;;18.75;7.38;;;;;;;14.65;100.00;101085.53;4981388;28;20066;-71
2021/08/01 00:22:54;;;;;;;17.42;6.28;;;;;;;14.66;100.00;101089.09;4980727;28;20108;-71
2021/08/01 00:25:22;;;;;;;14.27;5.90;;;;;;;14.64;100.00;101085.59;4979180;28;20057;-70
2021/08/01 00:27:50;;;;;;;11.68;6.00;;;;;;;14.59;100.00;101087.63;4979584;28;20066;-71
2021/08/01 00:30:18;;;;;;;16.40;5.60;;;;;;;14.52;100.00;101087.88;4982034;28;20085;-71
2021/08/01 00:32:45;;;;;;;19.95;6.57;;;;;;;14.49;100.00;101079.97;4978081;28;20105;-71
2021/08/01 00:35:14;;;;;;;15.25;6.32;;;;;;;14.46;100.00;101077.41;4976861;28;20090;-71
2021/08/01 00:37:42;;;;;;;13.45;6.78;;;;;;;14.44;100.00;101076.59;4980179;28;20687;-74
2021/08/01 00:40:11;;;;;;;23.20;6.30;;;;;;;14.38;100.00;101082.25;4978937;28;20318;-74
2021/08/01 00:42:41;;;;;;;15.75;6.68;;;;;;;14.38;100.00;101075.03;4979602;28;20070;-73
2021/08/01 00:45:09;;;;;;;17.20;6.68;;;;;;;14.36;100.00;101074.25;4980035;28;20438;-75
2021/08/01 00:47:37;;;;;;;16.52;6.47;;;;;;;14.39;100.00;101081.31;4978463;28;20071;-73
2021/08/01 00:50:07;;;;;;;17.23;6.50;;;;;;;14.42;100.00;101077.59;4978512;28;20076;-72
2021/08/01 00:52:37;;;;;;;16.50;7.30;;;;;;;14.43;100.00;101074.00;4981620;28;20065;-71
2021/08/01 00:55:07;;;;;;;17.17;6.43;;;;;;;14.44;100.00;101073.03;4978539;28;20069;-73
2021/08/01 00:57:35;;;;;;;19.27;6.32;;;;;;;14.47;100.00;101067.53;4977550;28;20659;-74
2021/08/01 01:00:05;;;;;;;15.38;6.10;;;;;;;14.49;100.00;101071.00;4978158;28;20152;-74
2021/08/01 01:02:37;;;;;;;19.58;6.15;;;;;;;14.53;100.00;101070.81;4982129;28;21325;-73
2021/08/01 01:05:12;;;;;;;18.48;7.40;;;;;;;14.52;100.00;101068.19;4983803;28;20115;-73
2021/08/01 01:07:48;;;;;;;19.27;7.40;;;;;;;14.59;100.00;101061.63;4980703;28;20066;-73
2021/08/01 01:10:25;;;;;;;29.20;7.57;;;;;;;14.61;100.00;101061.56;4981496;28;20114;-73
2021/08/01 01:12:59;;;;;;;19.40;6.97;;;;;;;14.64;100.00;101061.44;4982247;28;20058;-74
2021/08/01 01:15:29;;;;;;;17.63;7.07;;;;;;;14.63;100.00;101070.44;4978394;28;20293;-73
2021/08/01 01:18:00;;;;;;;19.30;7.13;;;;;;;14.63;100.00;101051.66;4983187;28;20070;-71
2021/08/01 01:20:37;;;;;;;16.27;7.05;;;;;;;14.60;100.00;101049.97;4981525;28;20089;-71
2021/08/01 01:23:24;;;;;;;16.15;6.57;;;;;;;14.66;100.00;101057.75;4983039;28;20117;-71
2021/08/01 01:26:00;;;;;;;18.05;6.78;;;;;;;14.64;100.00;101056.97;4981758;28;20097;-71
2021/08/01 01:28:38;;;;;;;15.82;6.18;;;;;;;14.68;100.00;101055.00;4981505;28;20230;-71
2021/08/01 01:31:14;;;;;;;17.42;6.35;;;;;;;14.70;100.00;101056.66;4981974;28;20117;-71
2021/08/01 01:33:53;;;;;;;19.15;7.18;;;;;;;14.72;100.00;101054.75;4981096;28;20082;-71
2021/08/01 01:36:26;;;;;;;16.17;7.10;;;;;;;14.77;100.00;101051.88;4983102;28;20168;-73
2021/08/01 01:38:55;;;;;;;16.70;7.45;;;;;;;14.78;100.00;101044.69;4981500;28;20099;-71
2021/08/01 01:41:25;;;;;;;14.90;6.25;;;;;;;14.79;100.00;101052.66;4980852;28;20066;-71
2021/08/01 01:43:54;;;;;;;18.75;6.80;;;;;;;14.81;100.00;101045.41;4981974;28;20066;-74
2021/08/01 01:46:24;;;;;;;23.25;8.88;;;;;;;14.86;100.00;101045.19;4981157;28;20069;-71
2021/08/01 01:48:55;;;;;;;24.08;6.95;;;;;;;14.89;100.00;101040.56;4982089;28;20081;-71
2021/08/01 01:51:24;;;;;;;18.77;7.72;;;;;;;14.92;100.00;101043.09;4978987;28;20066;-74
2021/08/01 01:53:53;;;;;;;20.90;8.20;;;;;;;14.97;100.00;101044.72;4983647;28;20067;-73
2021/08/01 01:56:22;;;;;;;23.90;9.15;;;;;;;15.00;100.00;101042.75;4982435;28;20142;-74
2021/08/01 01:58:49;;;;;;;24.13;9.05;;;;;;;15.02;100.00;101042.69;4979710;28;20469;-73
2021/08/01 02:01:17;;;;;;;20.45;8.27;;;;;;;15.02;100.00;101034.63;4981664;28;20070;-73
2021/08/01 02:03:45;;;;;;;24.00;8.63;;;;;;;14.99;100.00;101038.31;4978853;28;20065;-74
2021/08/01 02:06:14;;;;;;;23.25;10.20;;;;;;;14.99;100.00;101034.75;4981429;28;20437;-74
2021/08/01 02:08:54;;;;;;;26.52;9.63;;;;;;;15.01;100.00;101033.72;4982356;28;20116;-74
2021/08/01 02:11:24;;;;;;;28.33;11.25;;;;;;;15.00;100.00;101037.38;4942896;28;1062425;-74
2021/08/01 02:14:01;;;;;;;27.30;10.82;;;;;;;15.00;100.00;101036.50;4981065;28;20062;-73
2021/08/01 02:16:33;;;;;;;18.17;8.75;;;;;;;14.99;100.00;101032.94;4979251;28;20540;-74
2021/08/01 02:19:06;;;;;;;24.55;9.13;;;;;;;15.00;100.00;101036.50;4983169;28;20062;-74
2021/08/01 02:21:35;;;;;;;22.73;8.65;;;;;;;14.99;100.00;101041.00;4982394;28;20104;-74
2021/08/01 02:24:06;;;;;;;27.42;9.05;;;;;;;14.97;100.00;101039.34;4983262;28;20073;-73
2021/08/01 02:26:36;;;;;;;24.38;8.88;;;;;;;14.94;100.00;101040.34;4982384;28;20051;-74
2021/08/01 02:29:05;;;;;;;25.45;9.77;;;;;;;14.90;100.00;101045.00;4979051;28;20046;-73
2021/08/01 02:31:34;;;;;;;20.17;8.27;;;;;;;14.89;100.00;101047.75;4983186;28;20093;-74
2021/08/01 02:34:02;;;;;;;26.48;9.85;;;;;;;14.87;100.00;101041.59;4981287;28;20142;-74
2021/08/01 02:36:30;;;;;;;20.33;9.05;;;;;;;14.87;100.00;101039.75;4983210;28;20046;-74
2021/08/01 02:38:59;;;;;;;20.38;8.82;;;;;;;14.85;100.00;101040.78;4980237;28;20262;-73
2021/08/01 02:41:32;;;;;;;26.58;9.70;;;;;;;14.81;100.00;101037.34;4980581;28;20371;-74
2021/08/01 02:44:04;;;;;;;25.83;9.90;;;;;;;14.79;100.00;101036.56;4982681;28;20800;-74
2021/08/01 02:46:33;;;;;;;24.00;9.55;;;;;;;14.80;100.00;101032.06;4981319;28;20062;-73
2021/08/01 02:49:06;;;;;;;25.38;10.05;;;;;;;14.77;100.00;101033.06;4982552;28;20070;-73
2021/08/01 02:51:34;;;;;;;23.03;9.90;;;;;;;14.75;100.00;101035.84;4981582;28;20061;-73
2021/08/01 02:54:04;;;;;;;23.23;10.00;;;;;;;14.74;100.00;101038.59;4979507;28;20295;-74
2021/08/01 02:56:36;;;;;;;20.67;9.30;;;;;;;14.76;100.00;101034.00;4983655;28;20158;-73
2021/08/01 02:59:06;;;;;;;24.83;9.38;;;;;;;14.74;100.00;101035.91;4979319;28;20054;-73
2021/08/01 03:01:35;;;;;;;22.95;10.05;;;;;;;14.78;100.00;101031.25;4979616;28;20424;-73
2021/08/01 03:04:05;;;;;;;21.50;9.13;;;;;;;14.72;100.00;101035.97;4980302;28;20069;-73
2021/08/01 03:06:34;;;;;;;21.98;9.90;;;;;;;14.65;100.00;101025.59;4979749;28;20132;-73
2021/08/01 03:09:04;;;;;;;27.27;10.63;;;;;;;14.66;100.00;101022.84;4981642;28;20433;-71
2021/08/01 03:11:34;;;;;;;29.15;10.95;;;;;;;14.65;100.00;101020.22;4979131;28;20343;-71
2021/08/01 03:14:03;;;;;;;24.50;10.55;;;;;;;14.62;100.00;101020.34;4982833;28;20121;-71
2021/08/01 03:16:31;;;;;;;23.60;9.27;;;;;;;14.57;100.00;101015.16;4978790;28;20382;-71
2021/08/01 03:18:59;;;;;;;25.52;10.43;;;;;;;14.54;100.00;101021.56;4978351;28;20568;-72
2021/08/01 03:21:27;;;;;;;27.15;10.70;;;;;;;14.55;100.00;101025.09;4980242;28;20058;-72
2021/08/01 03:23:55;;;;;;;24.23;10.73;;;;;;;14.50;100.00;101022.63;4978874;28;20141;-72
2021/08/01 03:26:22;;;;;;;26.00;9.68;;;;;;;14.50;100.00;101029.81;4981853;28;20062;-71
2021/08/01 03:28:51;;;;;;;26.83;10.18;;;;;;;14.48;100.00;101027.19;4978694;28;20129;-71
2021/08/01 03:31:19;;;;;;;26.90;11.77;;;;;;;14.45;100.00;101027.31;4977403;28;20058;-75
2021/08/01 03:33:47;;;;;;;21.42;10.10;;;;;;;14.46;100.00;101020.16;4980595;28;20062;-74
2021/08/01 03:36:14;;;;;;;27.58;13.20;;;;;;;14.42;100.00;101015.84;4979046;28;20062;-73
2021/08/01 03:38:42;;;;;;;31.45;10.90;;;;;;;14.40;100.00;101018.59;4981537;28;20092;-74
2021/08/01 03:41:10;;;;;;;24.27;10.57;;;;;;;14.36;100.00;101025.94;4977907;28;20078;-74
2021/08/01 03:43:38;;;;;;;27.88;11.25;;;;;;;14.35;100.00;101023.31;4978428;28;20108;-74
2021/08/01 03:46:07;;;;;;;24.00;10.40;;;;;;;14.31;100.00;101029.78;4981184;28;20046;-74
2021/08/01 03:48:35;;;;;;;33.88;12.10;;;;;;;14.29;100.00;101024.47;4978368;28;20089;-73
2021/08/01 03:51:03;;;;;;;27.90;11.18;;;;;;;14.25;100.00;101027.34;4980347;28;20046;-74
2021/08/01 03:53:31;;;;;;;29.00;11.75;;;;;;;14.23;100.00;101029.25;4977755;28;20065;-74
2021/08/01 03:56:02;;;;;;;31.65;12.38;;;;;;;14.27;100.00;101028.16;4978347;28;20145;-74
2021/08/01 03:58:30;;;;;;;29.92;11.90;;;;;;;14.27;100.00;101030.84;4980905;28;20098;-75
2021/08/01 04:00:57;;;;;;;23.27;11.85;;;;;;;14.25;100.00;101030.03;4980112;28;20205;-75
2021/08/01 04:03:26;;;;;;;31.45;12.88;;;;;;;14.22;100.00;101032.84;4979701;28;20069;-75
2021/08/01 04:05:55;;;;;;;31.00;12.85;;;;;;;14.20;100.00;101028.44;4978025;28;20072;-74
2021/08/01 04:08:23;;;;;;;32.80;13.27;;;;;;;14.19;100.00;101025.81;4979056;28;20066;-74
2021/08/01 04:10:50;;;;;;;29.95;14.13;;;;;;;14.21;100.00;101026.63;4981120;28;20094;-74
2021/08/01 04:13:19;;;;;;;36.30;14.15;;;;;;;14.21;100.00;101029.31;4978075;28;20333;-74
2021/08/01 04:15:47;;;;;;;29.48;11.48;;;;;;;14.24;100.00;101026.50;4982520;28;20616;-74
2021/08/01 04:18:15;;;;;;;33.55;12.65;;;;;;;14.25;100.00;101032.72;4978368;28;20066;-74
2021/08/01 04:20:44;;;;;;;32.67;13.70;;;;;;;14.24;100.00;101039.03;4979555;28;20050;-74
2021/08/01 04:23:12;;;;;;;39.33;13.52;;;;;;;14.24;100.00;101044.41;4979591;28;20086;-74
2021/08/01 04:25:40;;;;;;;31.85;13.27;;;;;;;14.25;100.00;101040.78;4979386;28;20097;-74
2021/08/01 04:28:08;;;;;;;34.42;13.45;;;;;;;14.24;100.00;101034.53;4981362;28;20065;-74
2021/08/01 04:30:36;;;;;;;25.95;12.00;;;;;;;14.28;100.00;101036.13;4977752;28;20062;-72
2021/08/01 04:33:03;;;;;;;30.73;12.65;;;;;;;14.29;100.00;101045.94;4978175;28;20387;-72
2021/08/01 04:35:31;;;;;;;29.90;12.32;;;;;;;14.32;100.00;101037.75;4979880;28;20117;-72
2021/08/01 04:38:01;;;;;;;27.63;12.05;;;;;;;14.34;100.00;101041.25;4979542;28;20113;-72
2021/08/01 04:40:29;;;;;;;37.95;13.63;;;;;;;14.34;100.00;101035.88;4980256;28;20077;-71
2021/08/01 04:42:57;;;;;;;30.05;14.00;;;;;;;14.37;100.00;101038.44;4978317;28;20070;-75
2021/08/01 04:45:25;;;;;;;33.58;13.43;;;;;;;14.36;100.00;101036.66;4981621;28;20063;-74
2021/08/01 04:47:52;;;;;;;37.53;14.68;;;;;;;14.40;100.00;101034.72;4980580;28;20093;-74
2021/08/01 04:50:20;;;;;;;33.20;15.65;;;;;;;14.38;100.00;101029.41;4982058;28;20070;-73
2021/08/01 04:52:50;;;;;;;32.90;15.30;;;;;;;14.42;100.00;101029.28;4979826;28;20089;-74
2021/08/01 04:55:20;;;;;;;32.05;13.70;;;;;;;14.46;100.00;101038.97;4979526;28;20116;-74
2021/08/01 04:57:48;;;;;;;34.58;13.90;;;;;;;14.46;100.00;101031.75;4979003;28;20072;-74
2021/08/01 05:00:16;;;;;;;32.88;14.20;;;;;;;14.50;100.00;101041.41;4978815;28;20757;-74
2021/08/01 05:02:44;;;;;;;40.72;15.60;;;;;;;14.56;100.00;101040.28;4977589;28;20129;-74
2021/08/01 05:05:13;;;;;;;35.38;15.10;;;;;;;14.63;100.00;101044.47;4980126;28;20347;-72
2021/08/01 05:07:40;;;;;;;32.20;14.27;;;;;;;14.67;100.00;101045.19;4979620;28;20070;-71
2021/08/01 05:10:09;;;;;;;32.75;14.43;;;;;;;14.78;100.00;101044.69;4979038;28;20373;-72
2021/08/01 05:12:38;;;;;;;31.45;14.35;;;;;;;14.88;100.00;101046.88;4979423;28;20077;-72
2021/08/01 05:15:08;;;;;;;37.58;15.15;;;;;;;15.08;100.00;101035.16;4978492;28;20074;-72
2021/08/01 05:17:36;;;;;;;33.20;15.23;;;;;;;15.24;100.00;101045.22;4981398;28;20144;-72
2021/08/01 05:20:04;;;;;;;39.78;15.65;;;;;;;15.33;100.00;101039.38;4976394;28;20285;-72
2021/08/01 05:22:32;;;;;;;36.05;15.80;;;;;;;15.42;100.00;101028.16;4977731;28;20454;-72
2021/08/01 05:25:01;;;;;;;37.95;16.23;;;;;;;15.68;100.00;101026.00;4979416;28;20058;-72
2021/08/01 05:27:28;;;;;;;39.45;15.50;;;;;;;15.93;100.00;101024.78;4977492;28;20081;-72
2021/08/01 05:29:57;;;;;;;42.75;16.63;;;;;;;16.04;100.00;101020.59;4978548;28;20047;-72
2021/08/01 05:32:25;;;;;;;36.00;15.30;;;;;;;16.29;100.00;101013.91;4977883;28;20479;-71
2021/08/01 05:34:56;;;;;;;40.60;17.73;;;;;;;16.39;100.00;101012.47;4979524;28;20066;-71
2021/08/01 05:37:24;;;;;;;43.10;18.35;;;;;;;16.41;99.59;101012.38;4980888;28;20070;-71
2021/08/01 05:39:52;;;;;;;34.22;16.90;;;;;;;16.50;99.89;101016.38;4977691;28;20460;-72
2021/08/01 05:42:20;;;;;;;40.15;17.50;;;;;;;16.33;100.00;101022.69;4980628;28;20543;-71
2021/08/01 05:44:48;;;;;;;38.05;19.63;;;;;;;16.36;99.80;101025.22;4977893;28;20054;-71
2021/08/01 05:47:17;;;;;;;39.47;19.75;;;;;;;16.74;98.69;101028.53;4979290;28;20474;-72
2021/08/01 05:49:48;;;;;;;42.97;18.55;;;;;;;16.36;98.68;101022.53;4983436;28;20069;-71
2021/08/01 05:52:16;;;;;;;40.03;20.02;;;;;;;16.14;99.82;101030.88;4983394;28;20125;-72
2021/08/01 05:54:44;;;;;;;44.42;21.27;;;;;;;16.25;100.00;101028.50;4983144;28;20101;-72
2021/08/01 05:57:11;;;;;;;48.40;22.15;;;;;;;16.09;100.00;101033.81;4980764;28;20458;-70
2021/08/01 05:59:39;;;;;;;51.33;24.30;;;;;;;16.05;100.00;101027.69;4985451;28;20100;-73
2021/08/01 06:02:08;;;;;;;45.63;22.63;;;;;;;16.13;100.00;101026.44;4982116;28;20113;-76
2021/08/01 06:04:41;;;;;;;51.00;23.23;;;;;;;15.93;100.00;101028.34;4981114;28;20109;-74
2021/08/01 06:07:09;;;;;;;47.63;22.90;;;;;;;16.01;100.00;101028.81;4982166;28;20074;-73
2021/08/01 06:09:43;;;;;;;52.00;23.40;;;;;;;15.87;100.00;101034.91;4981005;28;20381;-75
2021/08/01 06:12:23;;;;;;;45.38;23.95;;;;;;;15.81;100.00;101037.91;4981245;28;20141;-74
2021/08/01 06:14:55;;;;;;;52.50;24.10;;;;;;;15.87;100.00;101023.28;4979607;28;20393;-73
2021/08/01 06:17:24;;;;;;;57.08;25.52;;;;;;;15.88;100.00;101025.00;4982996;28;20046;-75
2021/08/01 06:19:57;;;;;;;57.80;24.73;;;;;;;15.87;100.00;101025.97;4983893;28;20073;-75
2021/08/01 06:22:25;;;;;;;57.00;26.02;;;;;;;15.77;100.00;101032.78;4983285;28;20058;-74
2021/08/01 06:24:55;;;;;;;56.20;26.92;;;;;;;15.86;100.00;101030.47;4984820;28;20433;-74
2021/08/01 06:27:23;;;;;;;61.10;28.40;;;;;;;16.10;100.00;101035.53;4981601;28;20088;-76
2021/08/01 06:29:51;;;;;;;61.83;26.35;;;;;;;16.31;100.00;101036.25;4984124;28;20073;-76
2021/08/01 06:32:19;;;;;;;60.22;29.05;;;;;;;16.86;100.00;101037.81;4981737;28;20043;-75
2021/08/01 06:34:51;;;;;;;63.03;27.48;;;;;;;17.36;99.14;101031.38;4982077;28;20052;-75
2021/08/01 06:37:21;;;;;;;58.05;25.70;;;;;;;17.65;99.11;101022.56;4983456;28;20074;-74
2021/08/01 06:39:48;;;;;;;59.28;25.48;;;;;;;17.51;98.96;101023.38;4981139;28;20096;-73
2021/08/01 06:42:16;;;;;;;46.75;22.92;;;;;;;17.45;97.62;101027.31;4981696;28;20062;-71
2021/08/01 06:44:43;;;;;;;47.15;22.85;;;;;;;17.24;96.75;101028.53;4982627;28;20132;-71
2021/08/01 06:47:11;;;;;;;42.30;20.27;;;;;;;17.50;97.13;101033.28;4980787;28;20046;-71
2021/08/01 06:49:39;;;;;;;34.90;15.70;;;;;;;17.42;97.05;101040.97;4983461;28;20381;-74
2021/08/01 06:52:24;;;;;;;36.97;17.58;;;;;;;17.31;97.89;101040.69;4980436;28;20066;-75
2021/08/01 06:54:52;;;;;;;25.80;14.82;;;;;;;17.33;97.60;101049.56;4983561;28;20102;-73
2021/08/01 06:57:19;;;;;;;30.77;16.25;;;;;;;17.09;99.86;101046.44;4979524;28;20136;-73
2021/08/01 06:59:47;;;;;;;30.83;14.65;;;;;;;17.03;98.98;101042.25;4983013;28;20051;-76
2021/08/01 07:02:15;;;;;;;25.92;14.18;;;;;;;17.04;98.90;101037.72;4981391;28;20073;-74
2021/08/01 07:04:44;;;;;;;24.42;12.73;;;;;;;16.90;99.69;101039.38;4983567;28;20061;-76
2021/08/01 07:07:19;;;;;;;25.85;13.48;;;;;;;16.91;100.00;101048.34;4980547;28;20049;-78
2021/08/01 07:09:53;;;;;;;26.55;12.50;;;;;;;16.68;100.00;101074.66;4980270;28;20146;-74
2021/08/01 07:12:23;;;;;;;30.75;12.55;;;;;;;16.62;100.00;101075.00;4977600;28;20400;-74
2021/08/01 07:14:52;;;;;;;27.52;12.88;;;;;;;16.38;100.00;101067.28;4980854;28;20074;-73
2021/08/01 07:17:21;;;;;;;27.02;12.57;;;;;;;16.15;100.00;101079.25;4981168;28;20046;-74
2021/08/01 07:19:52;;;;;;;26.35;13.38;;;;;;;16.03;100.00;101083.44;4982131;28;20169;-73
2021/08/01 07:22:23;;;;;;;18.85;10.48;;;;;;;15.75;100.00;101101.88;4981043;28;20069;-72
2021/08/01 07:24:55;;;;;;;16.50;8.82;;;;;;;15.70;100.00;101083.28;4984147;28;20054;-72
2021/08/01 07:27:25;;;;;;;15.20;9.15;;;;;;;15.56;100.00;101077.72;4980489;28;20459;-72
2021/08/01 07:29:53;;;;;;;16.27;9.07;;;;;;;15.59;100.00;101075.75;4980810;28;20066;-71
2021/08/01 07:32:28;;;;;;;13.75;8.20;;;;;;;15.64;100.00;101064.75;4982019;28;20441;-72
2021/08/01 07:34:56;;;;;;;16.80;9.88;;;;;;;15.53;100.00;101065.31;4979370;28;20485;-72
2021/08/01 07:37:25;;;;;;;14.93;9.13;;;;;;;15.55;100.00;101070.59;4982442;28;20061;-71
2021/08/01 07:40:01;;;;;;;19.42;10.10;;;;;;;15.48;100.00;101068.22;4982941;28;20058;-71
2021/08/01 07:42:29;;;;;;;17.95;9.57;;;;;;;15.52;100.00;101068.94;4977141;28;20058;-72
2021/08/01 07:45:02;;;;;;;17.70;9.02;;;;;;;15.45;100.00;101067.50;4982033;28;20108;-72
2021/08/01 07:47:34;;;;;;;15.13;9.25;;;;;;;15.41;100.00;101074.84;4979616;28;20101;-72
2021/08/01 07:50:04;;;;;;;18.40;8.82;;;;;;;15.46;100.00;101079.97;4981331;28;20125;-71
2021/08/01 07:52:34;;;;;;;19.48;9.55;;;;;;;15.33;100.00;101079.72;4980371;28;20071;-71
2021/08/01 07:55:06;;;;;;;16.85;10.02;;;;;;;15.23;100.00;101090.03;4982717;28;20058;-72
2021/08/01 07:57:37;;;;;;;12.40;7.38;;;;;;;15.23;100.00;101086.47;4979240;28;20062;-72
2021/08/01 08:00:18;;;;;;;12.70;6.75;;;;;;;15.14;100.00;101085.09;4979194;28;20050;-71
2021/08/01 08:02:46;;;;;;;8.85;4.38;;;;;;;15.21;100.00;101074.94;4982387;28;20568;-72
2021/08/01 08:05:17;;;;;;;11.05;4.65;;;;;;;15.23;100.00;101079.28;4980832;28;20051;-71
2021/08/01 08:07:45;;;;;;;7.22;3.63;;;;;;;15.19;100.00;101071.41;4980909;28;20067;-72
2021/08/01 08:10:15;;;;;;;7.55;4.13;;;;;;;15.26;100.00;101072.88;4977702;28;20074;-73
2021/08/01 08:12:42;;;;;;;8.02;4.60;;;;;;;15.28;100.00;101076.38;4980524;28;20066;-71
2021/08/01 08:15:13;;;;;;;9.52;5.30;;;;;;;15.25;100.00;101074.69;4978671;28;20790;-72
2021/08/01 08:17:41;;;;;;;11.27;7.00;;;;;;;15.23;100.00;101076.59;4979351;28;20066;-72
2021/08/01 08:20:10;;;;;;;10.63;6.22;;;;;;;15.39;100.00;101083.91;4979935;28;20076;-72
2021/08/01 08:22:38;;;;;;;12.10;7.15;;;;;;;15.45;100.00;101089.00;4979538;28;20104;-73
2021/08/01 08:25:08;;;;;;;11.45;6.85;;;;;;;15.53;100.00;101088.59;4979155;28;20133;-74
2021/08/01 08:27:37;;;;;;;11.13;7.20;;;;;;;15.50;100.00;101101.25;4979560;28;20062;-73
2021/08/01 08:30:07;;;;;;;13.85;7.72;;;;;;;15.56;100.00;101101.91;4977781;28;20976;-73
2021/08/01 08:32:35;;;;;;;12.77;7.00;;;;;;;15.80;100.00;101103.44;4977418;28;20461;-74
2021/08/01 08:35:05;;;;;;;12.48;6.47;;;;;;;16.03;100.00;101096.88;4978879;28;20070;-74
2021/08/01 08:37:33;;;;;;;10.63;6.35;;;;;;;16.47;100.00;101103.63;4978686;28;20387;-74
2021/08/01 08:40:00;;;;;;;10.75;5.95;;;;;;;16.53;100.00;101097.94;4978875;28;20068;-74
2021/08/01 08:42:28;;;;;;;11.43;5.82;;;;;;;16.49;100.00;101100.84;4978082;28;20085;-73
2021/08/01 08:44:57;;;;;;;9.68;5.57;;;;;;;16.62;100.00;101105.50;4979454;28;20074;-72
2021/08/01 08:47:28;;;;;;;11.20;5.78;;;;;;;16.70;100.00;101105.13;4978814;28;20153;-71
2021/08/01 08:49:58;;;;;;;10.30;6.22;;;;;;;16.85;100.00;101098.03;4979675;28;20146;-71
2021/08/01 08:52:27;;;;;;;9.13;5.20;;;;;;;17.10;100.00;101100.25;4980929;28;20320;-71
2021/08/01 08:54:59;;;;;;;9.63;5.05;;;;;;;17.36;100.00;101097.94;4979795;28;20578;-71
2021/08/01 08:57:31;;;;;;;8.80;4.80;;;;;;;17.02;96.10;101102.50;4980925;28;20326;-70
2021/08/01 09:00:02;;;;;;;10.95;5.03;;;;;;;17.14;97.68;101093.72;4980622;28;20501;-70
2021/08/01 09:02:31;;;;;;;9.82;4.65;;;;;;;17.45;97.40;101099.25;4981268;28;20066;-70
2021/08/01 09:04:59;;;;;;;10.02;4.95;;;;;;;17.96;94.95;101093.66;4980245;28;20066;-70
2021/08/01 09:07:26;;;;;;;11.98;7.05;;;;;;;18.77;94.11;101104.06;4982246;28;20067;-70
2021/08/01 09:09:55;;;;;;;8.93;4.63;;;;;;;18.78;91.63;101100.38;4979916;28;20067;-70
2021/08/01 09:12:23;;;;;;;10.55;5.28;;;;;;;19.47;92.40;101098.72;4981290;28;20066;-70
2021/08/01 09:15:11;;;;;;;10.63;5.97;;;;;;;19.87;90.88;101085.28;4977593;28;20620;-70
2021/08/01 09:17:41;;;;;;;10.40;5.32;;;;;;;19.91;87.42;101097.63;4979252;28;20071;-70
2021/08/01 09:20:17;;;;;;;8.98;5.78;;;;;;;18.90;89.05;101104.19;4981028;28;20464;-70
2021/08/01 09:23:05;;;;;;;10.10;5.00;;;;;;;19.74;89.84;101101.47;4983008;28;20636;-70
2021/08/01 09:25:35;;;;;;;10.43;5.50;;;;;;;20.29;85.15;101093.28;4981942;28;20508;-71
2021/08/01 09:28:11;;;;;;;10.32;5.63;;;;;;;19.87;85.32;101097.94;4983552;28;20326;-70
2021/08/01 09:30:48;;;;;;;12.77;7.25;;;;;;;19.52;88.78;101101.97;4982300;28;20337;-74
2021/08/01 09:33:20;;;;;;;11.82;7.13;;;;;;;19.31;87.84;101101.56;4984056;28;20046;-70
2021/08/01 09:36:05;;;;;;;14.93;8.13;;;;;;;19.68;88.24;101098.25;4986071;28;20089;-70
2021/08/01 09:38:47;;;;;;;9.93;6.07;;;;;;;20.09;85.43;101100.06;4981985;28;20082;-71
2021/08/01 09:41:17;;;;;;;11.43;6.53;;;;;;;19.77;83.55;101098.56;4983015;28;20066;-69
2021/08/01 09:43:49;;;;;;;10.82;6.57;;;;;;;19.34;85.54;101104.06;4981241;28;20050;-69
2021/08/01 09:46:20;;;;;;;10.02;5.63;;;;;;;19.11;81.87;101107.38;4983376;28;20061;-72
2021/08/01 09:49:09;;;;;;;8.73;5.10;;;;;;;19.65;78.85;101104.78;4981946;28;20051;-72
2021/08/01 09:51:41;;;;;;;9.95;5.60;;;;;;;19.58;82.20;101101.59;4986786;28;20077;-72
2021/08/01 09:54:10;;;;;;;11.45;6.97;;;;;;;19.71;82.69;101101.63;4983347;28;20213;-72
2021/08/01 09:56:38;;;;;;;12.07;6.22;;;;;;;19.85;78.29;101110.72;4980083;28;20058;-72
2021/08/01 09:59:19;;;;;;;8.60;5.88;;;;;;;19.43;77.26;101113.44;4983347;28;20161;-71
2021/08/01 10:01:54;;;;;;;10.57;5.95;;;;;;;19.33;77.83;101115.00;4981373;28;20065;-70
2021/08/01 10:04:26;;;;;;;8.32;5.10;;;;;;;19.08;79.09;101116.53;4980958;28;20066;-69
2021/08/01 10:07:05;;;;;;;10.50;5.70;;;;;;;19.53;80.55;101108.25;4981886;28;20070;-70
2021/08/01 10:09:34;;;;;;;10.70;5.25;;;;;;;19.65;79.54;101107.47;4981726;28;20112;-71
2021/08/01 10:12:03;;;;;;;8.63;4.53;;;;;;;19.81;75.89;101110.06;4985606;28;20066;-72
2021/08/01 10:14:32;;;;;;;8.25;5.03;;;;;;;20.19;74.55;101111.16;4981482;28;20069;-71
2021/08/01 10:17:01;;;;;;;9.65;5.00;;;;;;;20.20;74.70;101112.91;4982725;28;20098;-73
2021/08/01 10:19:30;;;;;;;9.10;4.90;;;;;;;19.78;73.79;101113.84;4983109;28;20090;-74
2021/08/01 10:22:00;;;;;;;9.48;5.68;;;;;;;19.70;75.39;101110.75;4982205;28;20090;-73
2021/08/01 10:24:30;;;;;;;8.27;5.05;;;;;;;19.49;72.57;101115.72;4981606;28;20066;-73
2021/08/01 10:27:03;;;;;;;10.35;5.68;;;;;;;19.38;77.57;101115.56;4977227;28;20407;-73
2021/08/01 10:29:37;;;;;;;10.93;6.00;;;;;;;19.47;73.72;101111.38;4981084;28;20070;-72
2021/08/01 10:32:10;;;;;;;9.15;5.25;;;;;;;19.80;73.10;101110.16;4981410;28;20121;-73
2021/08/01 10:34:45;;;;;;;9.57;5.53;;;;;;;19.84;72.33;101109.00;4981197;28;20089;-73
2021/08/01 10:37:19;;;;;;;8.25;4.80;;;;;;;20.57;71.81;101115.75;4982490;28;20082;-74
2021/08/01 10:39:49;;;;;;;7.20;4.60;;;;;;;20.55;72.21;101115.88;4981940;28;20066;-73
2021/08/01 10:42:18;;;;;;;9.52;4.45;;;;;;;20.29;70.02;101106.84;4978645;28;20121;-73
2021/08/01 10:44:48;;;;;;;7.88;4.53;;;;;;;20.40;73.68;101111.50;4976810;28;20113;-73
2021/08/01 10:47:18;;;;;;;7.05;4.15;;;;;;;19.95;71.89;101123.56;4982270;28;20129;-73
2021/08/01 10:49:48;;;;;;;8.60;4.35;;;;;;;19.91;71.13;101118.44;4980563;28;20054;-72
2021/08/01 10:52:18;;;;;;;8.35;4.18;;;;;;;20.55;69.20;101115.00;4977007;28;20522;-71
2021/08/01 10:54:53;;;;;;;8.57;4.30;;;;;;;20.59;68.20;101117.38;4982821;28;20070;-70
2021/08/01 10:57:22;;;;;;;8.18;4.35;;;;;;;20.17;68.24;101123.94;4981329;28;20520;-71
2021/08/01 11:00:09;;;;;;;9.45;4.50;;;;;;;19.78;68.77;101129.19;4981530;28;20211;-71
2021/08/01 11:02:38;;;;;;;6.38;4.10;;;;;;;19.69;69.02;101127.94;4982174;28;20077;-71
2021/08/01 11:05:33;;;;;;;5.97;3.35;;;;;;;20.67;67.91;101131.31;4979497;28;20070;-71
2021/08/01 11:08:08;;;;;;;7.13;3.78;;;;;;;21.25;67.00;101118.16;4980067;28;20038;-71
2021/08/01 11:10:39;;;;;;;7.90;3.70;;;;;;;21.38;64.78;101115.38;4980738;28;20062;-68
2021/08/01 11:13:38;;;;;;;6.28;3.45;;;;;;;21.28;64.90;101125.19;4979895;28;20601;-71
2021/08/01 11:16:12;;;;;;;8.43;3.80;;;;;;;21.10;65.13;101107.56;4978369;28;20315;-71
2021/08/01 11:18:43;;;;;;;9.05;3.90;;;;;;;21.41;64.39;101123.31;4980310;28;20311;-71
2021/08/01 11:21:12;;;;;;;9.25;3.92;;;;;;;21.09;65.31;101120.22;4980158;28;20321;-71
2021/08/01 11:24:06;;;;;;;8.40;4.70;;;;;;;21.03;67.10;101123.41;4975181;28;20065;-72